map of LMA home
LMA - Airport
Location
City:  Lake Minchumina, Alaska, United States
Name:Minchumina Airport
ICAO:PAMH
IATA:LMA
FAA LID:MHM

Details
Type:Airport (Airfield)
Use:Public/Civil
Latitude:6353'09"N (63.885972)
Longitude:15218'07"W (-152.301832)
Datum:WGS 1984
Elevation:681 ft (208 m)
Variation:16.22E (WMM2015 magnetic declination)
-0.38 annual change
Runways:1
Longest:4184 × 100 ft (1275 × 30.5 m)

Time
Time Zone:UTC-9 (DST-8)
Local Time:

Weather
METAR:PAMH 301556Z AUTO 00000KT 10SM CLR 01/00 A3045 RMK AO2 SLP333 T00060000 FZRANO

Related Locations
Nearby:
Farthest:NZSP: 10619 mi / 17089 km
Amundsen-Scott South Pole Station [Jack F. Paulus Skiway], AQ

Find:

   beyond  
but within

Other Information
Maps:
NOTAMs:
Links:
Sources:

  
flag of United States
flag of Alaska
  

Sectional Chart

Flight Planning
at skyvector.com

Satellite Image

Google Maps Satellite view

 

Copyright © 2004-2016 Karl L. Swartz. All rights reserved.
The Great Circle Mapper name and logo are trademarks of the Great Circle Mapper.
All other trademarks mentioned herein belong to their respective owners.
Please see credits for attibutions and further copyright information.

  Follow gcmap on Facebook Follow gcmap on Twitter Follow gcmap on Google+ GCmap on LinkedIn

hCard Microformat

Geo Microformat